sensor_id;sensor_type;location;lat;lon;timestamp;P1;durP1;ratioP1;P2;durP2;ratioP2
769;SDS011;368;48.698;9.116;2023-09-07T00:01:11;4.50;;;4.10;;
769;SDS011;368;48.698;9.116;2023-09-07T00:03:38;5.80;;;5.30;;
769;SDS011;368;48.698;9.116;2023-09-07T00:06:07;5.07;;;4.57;;
769;SDS011;368;48.698;9.116;2023-09-07T00:08:34;6.00;;;4.77;;
769;SDS011;368;48.698;9.116;2023-09-07T00:11:04;6.17;;;5.07;;
769;SDS011;368;48.698;9.116;2023-09-07T00:13:31;5.43;;;4.93;;
769;SDS011;368;48.698;9.116;2023-09-07T00:15:58;5.07;;;4.57;;
769;SDS011;368;48.698;9.116;2023-09-07T00:18:26;6.33;;;5.20;;
769;SDS011;368;48.698;9.116;2023-09-07T00:20:52;5.07;;;4.57;;
769;SDS011;368;48.698;9.116;2023-09-07T00:23:21;5.60;;;4.47;;
769;SDS011;368;48.698;9.116;2023-09-07T00:25:48;5.23;;;4.73;;
769;SDS011;368;48.698;9.116;2023-09-07T00:28:15;5.50;;;5.00;;
769;SDS011;368;48.698;9.116;2023-09-07T00:30:42;7.00;;;4.90;;
769;SDS011;368;48.698;9.116;2023-09-07T00:33:09;7.23;;;5.30;;
769;SDS011;368;48.698;9.116;2023-09-07T00:35:36;5.50;;;5.00;;
769;SDS011;368;48.698;9.116;2023-09-07T00:38:03;6.23;;;4.70;;
769;SDS011;368;48.698;9.116;2023-09-07T00:40:31;4.50;;;4.10;;
769;SDS011;368;48.698;9.116;2023-09-07T00:42:58;5.60;;;5.10;;
769;SDS011;368;48.698;9.116;2023-09-07T00:45:25;4.73;;;4.30;;
769;SDS011;368;48.698;9.116;2023-09-07T00:47:52;5.87;;;5.37;;
769;SDS011;368;48.698;9.116;2023-09-07T00:50:19;4.97;;;4.50;;
769;SDS011;368;48.698;9.116;2023-09-07T00:52:46;4.83;;;4.33;;
769;SDS011;368;48.698;9.116;2023-09-07T00:55:14;5.30;;;4.80;;
769;SDS011;368;48.698;9.116;2023-09-07T00:57:42;4.57;;;4.17;;
769;SDS011;368;48.698;9.116;2023-09-07T01:00:10;4.90;;;4.50;;
769;SDS011;368;48.698;9.116;2023-09-07T01:02:37;5.10;;;4.70;;
769;SDS011;368;48.698;9.116;2023-09-07T01:05:04;4.83;;;4.37;;
769;SDS011;368;48.698;9.116;2023-09-07T01:07:32;4.60;;;4.20;;
769;SDS011;368;48.698;9.116;2023-09-07T01:10:03;5.33;;;4.90;;
769;SDS011;368;48.698;9.116;2023-09-07T01:12:31;5.10;;;4.60;;
769;SDS011;368;48.698;9.116;2023-09-07T01:14:59;6.20;;;4.90;;
769;SDS011;368;48.698;9.116;2023-09-07T01:17:27;5.67;;;5.07;;
769;SDS011;368;48.698;9.116;2023-09-07T01:19:54;5.67;;;4.50;;
769;SDS011;368;48.698;9.116;2023-09-07T01:22:31;5.27;;;4.77;;
769;SDS011;368;48.698;9.116;2023-09-07T01:24:58;6.00;;;4.80;;
769;SDS011;368;48.698;9.116;2023-09-07T01:27:27;6.23;;;4.20;;
769;SDS011;368;48.698;9.116;2023-09-07T01:29:54;4.90;;;4.40;;
769;SDS011;368;48.698;9.116;2023-09-07T01:32:21;5.30;;;4.80;;
769;SDS011;368;48.698;9.116;2023-09-07T01:34:48;5.60;;;5.10;;
769;SDS011;368;48.698;9.116;2023-09-07T01:37:15;5.47;;;4.97;;
769;SDS011;368;48.698;9.116;2023-09-07T01:39:43;5.70;;;5.20;;
769;SDS011;368;48.698;9.116;2023-09-07T01:42:10;4.83;;;4.20;;
769;SDS011;368;48.698;9.116;2023-09-07T01:44:36;4.40;;;4.00;;
769;SDS011;368;48.698;9.116;2023-09-07T01:47:03;5.70;;;5.17;;
769;SDS011;368;48.698;9.116;2023-09-07T01:49:30;4.63;;;4.20;;
769;SDS011;368;48.698;9.116;2023-09-07T01:51:57;7.27;;;4.63;;
769;SDS011;368;48.698;9.116;2023-09-07T01:54:24;5.13;;;4.63;;
769;SDS011;368;48.698;9.116;2023-09-07T01:56:52;4.80;;;4.33;;
769;SDS011;368;48.698;9.116;2023-09-07T01:59:18;4.80;;;4.40;;
769;SDS011;368;48.698;9.116;2023-09-07T02:01:45;4.60;;;4.10;;
769;SDS011;368;48.698;9.116;2023-09-07T02:04:12;4.90;;;4.50;;
769;SDS011;368;48.698;9.116;2023-09-07T02:06:39;4.80;;;4.40;;
769;SDS011;368;48.698;9.116;2023-09-07T02:09:05;4.57;;;4.10;;
769;SDS011;368;48.698;9.116;2023-09-07T02:11:33;4.80;;;4.40;;
769;SDS011;368;48.698;9.116;2023-09-07T02:14:01;5.77;;;5.17;;
769;SDS011;368;48.698;9.116;2023-09-07T02:16:28;4.73;;;4.33;;
769;SDS011;368;48.698;9.116;2023-09-07T02:19:00;5.97;;;4.87;;
769;SDS011;368;48.698;9.116;2023-09-07T02:21:28;4.60;;;4.10;;
769;SDS011;368;48.698;9.116;2023-09-07T02:23:55;5.23;;;4.77;;
769;SDS011;368;48.698;9.116;2023-09-07T02:26:22;6.50;;;4.23;;
769;SDS011;368;48.698;9.116;2023-09-07T02:28:49;4.67;;;4.27;;
769;SDS011;368;48.698;9.116;2023-09-07T02:31:17;4.90;;;4.43;;
769;SDS011;368;48.698;9.116;2023-09-07T02:33:44;4.90;;;4.27;;
769;SDS011;368;48.698;9.116;2023-09-07T02:36:11;6.67;;;4.33;;
769;SDS011;368;48.698;9.116;2023-09-07T02:38:38;5.23;;;4.43;;
769;SDS011;368;48.698;9.116;2023-09-07T02:41:04;4.77;;;4.37;;
769;SDS011;368;48.698;9.116;2023-09-07T02:43:31;4.10;;;3.80;;
769;SDS011;368;48.698;9.116;2023-09-07T02:45:58;5.37;;;4.40;;
769;SDS011;368;48.698;9.116;2023-09-07T02:48:26;4.10;;;3.80;;
769;SDS011;368;48.698;9.116;2023-09-07T02:50:53;5.00;;;4.50;;
769;SDS011;368;48.698;9.116;2023-09-07T02:53:23;5.80;;;5.00;;
769;SDS011;368;48.698;9.116;2023-09-07T02:55:50;6.33;;;5.27;;
769;SDS011;368;48.698;9.116;2023-09-07T02:58:16;5.10;;;4.70;;
769;SDS011;368;48.698;9.116;2023-09-07T03:00:44;5.20;;;4.67;;
769;SDS011;368;48.698;9.116;2023-09-07T03:03:12;4.77;;;4.30;;
769;SDS011;368;48.698;9.116;2023-09-07T03:05:41;4.73;;;4.33;;
769;SDS011;368;48.698;9.116;2023-09-07T03:08:08;6.07;;;5.47;;
769;SDS011;368;48.698;9.116;2023-09-07T03:10:35;4.47;;;4.07;;
769;SDS011;368;48.698;9.116;2023-09-07T03:13:03;4.80;;;4.37;;
769;SDS011;368;48.698;9.116;2023-09-07T03:15:30;4.87;;;4.30;;
769;SDS011;368;48.698;9.116;2023-09-07T03:17:57;4.93;;;4.40;;
769;SDS011;368;48.698;9.116;2023-09-07T03:20:24;4.93;;;4.43;;
769;SDS011;368;48.698;9.116;2023-09-07T03:22:52;5.20;;;4.13;;
769;SDS011;368;48.698;9.116;2023-09-07T03:25:19;7.20;;;4.73;;
769;SDS011;368;48.698;9.116;2023-09-07T03:27:45;4.87;;;4.03;;
769;SDS011;368;48.698;9.116;2023-09-07T03:30:12;5.07;;;4.57;;
769;SDS011;368;48.698;9.116;2023-09-07T03:32:39;4.43;;;4.03;;
769;SDS011;368;48.698;9.116;2023-09-07T03:35:06;4.50;;;4.10;;
769;SDS011;368;48.698;9.116;2023-09-07T03:37:34;4.37;;;3.97;;
769;SDS011;368;48.698;9.116;2023-09-07T03:40:03;5.00;;;4.60;;
769;SDS011;368;48.698;9.116;2023-09-07T03:42:31;4.70;;;4.30;;
769;SDS011;368;48.698;9.116;2023-09-07T03:44:58;5.87;;;4.70;;
769;SDS011;368;48.698;9.116;2023-09-07T03:47:25;5.83;;;4.60;;
769;SDS011;368;48.698;9.116;2023-09-07T03:49:54;5.40;;;4.90;;
769;SDS011;368;48.698;9.116;2023-09-07T03:52:20;5.60;;;4.33;;
769;SDS011;368;48.698;9.116;2023-09-07T03:54:51;5.03;;;4.37;;
769;SDS011;368;48.698;9.116;2023-09-07T03:57:21;5.17;;;4.67;;
769;SDS011;368;48.698;9.116;2023-09-07T03:59:48;5.23;;;4.73;;
769;SDS011;368;48.698;9.116;2023-09-07T04:02:14;6.20;;;4.13;;
769;SDS011;368;48.698;9.116;2023-09-07T04:04:42;4.33;;;3.93;;
769;SDS011;368;48.698;9.116;2023-09-07T04:07:09;4.87;;;4.47;;
769;SDS011;368;48.698;9.116;2023-09-07T04:09:36;5.23;;;4.83;;
769;SDS011;368;48.698;9.116;2023-09-07T04:12:03;5.17;;;4.67;;
769;SDS011;368;48.698;9.116;2023-09-07T04:14:32;5.10;;;4.60;;
769;SDS011;368;48.698;9.116;2023-09-07T04:17:00;5.87;;;4.90;;
769;SDS011;368;48.698;9.116;2023-09-07T04:19:27;5.10;;;4.70;;
769;SDS011;368;48.698;9.116;2023-09-07T04:21:54;6.03;;;4.70;;
769;SDS011;368;48.698;9.116;2023-09-07T04:24:20;5.00;;;4.60;;
769;SDS011;368;48.698;9.116;2023-09-07T04:26:47;5.60;;;5.10;;
769;SDS011;368;48.698;9.116;2023-09-07T04:29:14;6.40;;;5.13;;
769;SDS011;368;48.698;9.116;2023-09-07T04:31:43;4.90;;;4.50;;
769;SDS011;368;48.698;9.116;2023-09-07T04:34:09;6.20;;;5.60;;
769;SDS011;368;48.698;9.116;2023-09-07T04:36:36;4.93;;;4.53;;
769;SDS011;368;48.698;9.116;2023-09-07T04:39:03;5.67;;;4.97;;
769;SDS011;368;48.698;9.116;2023-09-07T04:41:30;5.33;;;4.83;;
769;SDS011;368;48.698;9.116;2023-09-07T04:43:57;6.17;;;5.57;;
769;SDS011;368;48.698;9.116;2023-09-07T04:46:23;5.00;;;4.50;;
769;SDS011;368;48.698;9.116;2023-09-07T04:48:51;5.43;;;4.93;;
769;SDS011;368;48.698;9.116;2023-09-07T04:51:18;5.83;;;5.27;;
769;SDS011;368;48.698;9.116;2023-09-07T04:53:47;6.10;;;5.40;;
769;SDS011;368;48.698;9.116;2023-09-07T04:56:13;7.13;;;6.53;;
769;SDS011;368;48.698;9.116;2023-09-07T04:58:41;5.43;;;4.93;;
769;SDS011;368;48.698;9.116;2023-09-07T05:01:09;4.93;;;4.47;;
769;SDS011;368;48.698;9.116;2023-09-07T05:03:37;5.67;;;5.20;;
769;SDS011;368;48.698;9.116;2023-09-07T05:06:07;5.57;;;5.17;;
769;SDS011;368;48.698;9.116;2023-09-07T05:08:33;7.30;;;4.63;;
769;SDS011;368;48.698;9.116;2023-09-07T05:11:01;8.10;;;4.80;;
769;SDS011;368;48.698;9.116;2023-09-07T05:13:28;4.90;;;4.40;;
769;SDS011;368;48.698;9.116;2023-09-07T05:15:57;6.77;;;5.20;;
769;SDS011;368;48.698;9.116;2023-09-07T05:18:25;5.40;;;4.90;;
769;SDS011;368;48.698;9.116;2023-09-07T05:20:52;5.13;;;4.70;;
769;SDS011;368;48.698;9.116;2023-09-07T05:23:20;6.17;;;5.57;;
769;SDS011;368;48.698;9.116;2023-09-07T05:25:48;9.77;;;6.07;;
769;SDS011;368;48.698;9.116;2023-09-07T05:28:17;10.27;;;7.43;;
769;SDS011;368;48.698;9.116;2023-09-07T05:30:45;8.00;;;7.20;;
769;SDS011;368;48.698;9.116;2023-09-07T05:33:13;9.33;;;8.30;;
769;SDS011;368;48.698;9.116;2023-09-07T05:35:41;9.90;;;6.73;;
769;SDS011;368;48.698;9.116;2023-09-07T05:38:08;6.33;;;5.83;;
769;SDS011;368;48.698;9.116;2023-09-07T05:40:37;6.83;;;6.23;;
769;SDS011;368;48.698;9.116;2023-09-07T05:43:05;7.37;;;6.67;;
769;SDS011;368;48.698;9.116;2023-09-07T05:45:33;6.90;;;6.30;;
769;SDS011;368;48.698;9.116;2023-09-07T05:48:01;9.70;;;7.60;;
769;SDS011;368;48.698;9.116;2023-09-07T05:50:28;14.47;;;8.70;;
769;SDS011;368;48.698;9.116;2023-09-07T05:52:55;9.03;;;8.00;;
769;SDS011;368;48.698;9.116;2023-09-07T05:55:22;10.70;;;8.40;;
769;SDS011;368;48.698;9.116;2023-09-07T05:57:50;8.20;;;7.40;;
769;SDS011;368;48.698;9.116;2023-09-07T06:00:16;6.43;;;5.83;;
769;SDS011;368;48.698;9.116;2023-09-07T06:02:45;5.83;;;4.10;;
769;SDS011;368;48.698;9.116;2023-09-07T06:05:12;5.90;;;5.13;;
769;SDS011;368;48.698;9.116;2023-09-07T06:07:39;4.40;;;4.00;;
769;SDS011;368;48.698;9.116;2023-09-07T06:10:06;4.97;;;4.47;;
769;SDS011;368;48.698;9.116;2023-09-07T06:12:33;8.60;;;7.80;;
769;SDS011;368;48.698;9.116;2023-09-07T06:15:01;8.57;;;7.67;;
769;SDS011;368;48.698;9.116;2023-09-07T06:17:29;7.73;;;6.93;;
769;SDS011;368;48.698;9.116;2023-09-07T06:19:56;8.37;;;7.53;;
769;SDS011;368;48.698;9.116;2023-09-07T06:22:22;8.67;;;7.90;;
769;SDS011;368;48.698;9.116;2023-09-07T06:24:49;11.20;;;8.17;;
769;SDS011;368;48.698;9.116;2023-09-07T06:27:16;8.23;;;7.10;;
769;SDS011;368;48.698;9.116;2023-09-07T06:29:43;8.30;;;7.50;;
769;SDS011;368;48.698;9.116;2023-09-07T06:32:11;9.33;;;8.33;;
769;SDS011;368;48.698;9.116;2023-09-07T06:34:38;10.13;;;8.37;;
769;SDS011;368;48.698;9.116;2023-09-07T06:37:05;8.87;;;8.00;;
769;SDS011;368;48.698;9.116;2023-09-07T06:39:32;8.67;;;7.97;;
769;SDS011;368;48.698;9.116;2023-09-07T06:41:59;8.63;;;7.93;;
769;SDS011;368;48.698;9.116;2023-09-07T06:44:26;9.00;;;7.43;;
769;SDS011;368;48.698;9.116;2023-09-07T06:46:53;9.70;;;7.53;;
769;SDS011;368;48.698;9.116;2023-09-07T06:49:21;10.57;;;8.03;;
769;SDS011;368;48.698;9.116;2023-09-07T06:51:48;9.60;;;8.10;;
769;SDS011;368;48.698;9.116;2023-09-07T06:54:15;10.30;;;8.37;;
769;SDS011;368;48.698;9.116;2023-09-07T06:56:41;8.43;;;7.73;;
769;SDS011;368;48.698;9.116;2023-09-07T06:59:08;12.10;;;8.00;;
769;SDS011;368;48.698;9.116;2023-09-07T07:01:35;9.27;;;8.37;;
769;SDS011;368;48.698;9.116;2023-09-07T07:04:02;8.43;;;7.00;;
769;SDS011;368;48.698;9.116;2023-09-07T07:06:30;9.30;;;8.43;;
769;SDS011;368;48.698;9.116;2023-09-07T07:08:57;9.00;;;8.20;;
769;SDS011;368;48.698;9.116;2023-09-07T07:11:23;7.93;;;7.03;;
769;SDS011;368;48.698;9.116;2023-09-07T07:13:50;8.20;;;7.40;;
769;SDS011;368;48.698;9.116;2023-09-07T07:16:17;8.37;;;7.67;;
769;SDS011;368;48.698;9.116;2023-09-07T07:18:44;7.13;;;6.53;;
769;SDS011;368;48.698;9.116;2023-09-07T07:21:10;8.23;;;7.37;;
769;SDS011;368;48.698;9.116;2023-09-07T07:23:39;7.80;;;7.10;;
769;SDS011;368;48.698;9.116;2023-09-07T07:26:05;7.90;;;7.17;;
769;SDS011;368;48.698;9.116;2023-09-07T07:28:33;7.90;;;7.20;;
769;SDS011;368;48.698;9.116;2023-09-07T07:31:06;8.40;;;7.57;;
769;SDS011;368;48.698;9.116;2023-09-07T07:33:33;7.67;;;6.97;;
769;SDS011;368;48.698;9.116;2023-09-07T07:36:00;7.77;;;6.97;;
769;SDS011;368;48.698;9.116;2023-09-07T07:38:27;6.43;;;5.93;;
769;SDS011;368;48.698;9.116;2023-09-07T07:40:55;6.40;;;5.90;;
769;SDS011;368;48.698;9.116;2023-09-07T07:43:22;7.27;;;6.57;;
769;SDS011;368;48.698;9.116;2023-09-07T07:45:48;6.57;;;5.97;;
769;SDS011;368;48.698;9.116;2023-09-07T07:48:15;7.53;;;5.47;;
769;SDS011;368;48.698;9.116;2023-09-07T07:50:42;6.27;;;5.67;;
769;SDS011;368;48.698;9.116;2023-09-07T07:53:09;7.27;;;6.57;;
769;SDS011;368;48.698;9.116;2023-09-07T07:55:35;7.00;;;6.30;;
769;SDS011;368;48.698;9.116;2023-09-07T07:58:05;7.30;;;6.60;;
769;SDS011;368;48.698;9.116;2023-09-07T08:00:33;6.70;;;6.10;;
769;SDS011;368;48.698;9.116;2023-09-07T08:03:00;6.70;;;6.10;;
769;SDS011;368;48.698;9.116;2023-09-07T08:05:28;6.07;;;5.47;;
769;SDS011;368;48.698;9.116;2023-09-07T08:07:55;8.20;;;7.40;;
769;SDS011;368;48.698;9.116;2023-09-07T08:10:22;7.90;;;7.20;;
769;SDS011;368;48.698;9.116;2023-09-07T08:12:52;7.97;;;7.23;;
769;SDS011;368;48.698;9.116;2023-09-07T08:15:22;7.23;;;6.60;;
769;SDS011;368;48.698;9.116;2023-09-07T08:17:50;7.70;;;7.07;;
769;SDS011;368;48.698;9.116;2023-09-07T08:20:17;8.57;;;7.73;;
769;SDS011;368;48.698;9.116;2023-09-07T08:22:44;6.70;;;6.20;;
769;SDS011;368;48.698;9.116;2023-09-07T08:25:10;6.80;;;6.10;;
769;SDS011;368;48.698;9.116;2023-09-07T08:27:38;8.10;;;6.60;;
769;SDS011;368;48.698;9.116;2023-09-07T08:30:08;6.53;;;5.93;;
769;SDS011;368;48.698;9.116;2023-09-07T08:32:39;8.03;;;7.27;;
769;SDS011;368;48.698;9.116;2023-09-07T08:35:06;7.53;;;7.03;;
769;SDS011;368;48.698;9.116;2023-09-07T08:37:34;8.10;;;7.40;;
769;SDS011;368;48.698;9.116;2023-09-07T08:40:01;7.87;;;7.10;;
769;SDS011;368;48.698;9.116;2023-09-07T08:42:30;6.30;;;5.80;;
769;SDS011;368;48.698;9.116;2023-09-07T08:44:56;7.80;;;6.50;;
769;SDS011;368;48.698;9.116;2023-09-07T08:47:27;7.00;;;6.40;;
769;SDS011;368;48.698;9.116;2023-09-07T08:49:58;7.07;;;6.43;;
769;SDS011;368;48.698;9.116;2023-09-07T08:52:25;7.03;;;6.33;;
769;SDS011;368;48.698;9.116;2023-09-07T08:54:52;7.67;;;7.03;;
769;SDS011;368;48.698;9.116;2023-09-07T08:57:23;8.97;;;6.60;;
769;SDS011;368;48.698;9.116;2023-09-07T08:59:52;7.00;;;6.50;;
769;SDS011;368;48.698;9.116;2023-09-07T09:02:19;7.30;;;6.60;;
769;SDS011;368;48.698;9.116;2023-09-07T09:04:46;7.13;;;6.50;;
769;SDS011;368;48.698;9.116;2023-09-07T09:07:15;6.87;;;6.17;;
769;SDS011;368;48.698;9.116;2023-09-07T09:09:42;9.80;;;6.37;;
769;SDS011;368;48.698;9.116;2023-09-07T09:12:09;5.83;;;5.43;;
769;SDS011;368;48.698;9.116;2023-09-07T09:14:37;8.40;;;6.83;;
769;SDS011;368;48.698;9.116;2023-09-07T09:17:05;6.57;;;5.80;;
769;SDS011;368;48.698;9.116;2023-09-07T09:19:32;7.60;;;5.63;;
769;SDS011;368;48.698;9.116;2023-09-07T09:21:59;6.40;;;5.90;;
769;SDS011;368;48.698;9.116;2023-09-07T09:24:31;6.80;;;6.30;;
769;SDS011;368;48.698;9.116;2023-09-07T09:26:58;6.37;;;5.80;;
769;SDS011;368;48.698;9.116;2023-09-07T09:29:25;6.23;;;5.70;;
769;SDS011;368;48.698;9.116;2023-09-07T09:31:52;7.20;;;6.57;;
769;SDS011;368;48.698;9.116;2023-09-07T09:34:19;6.57;;;5.53;;
769;SDS011;368;48.698;9.116;2023-09-07T09:36:47;6.47;;;5.87;;
769;SDS011;368;48.698;9.116;2023-09-07T09:39:23;7.10;;;6.40;;
769;SDS011;368;48.698;9.116;2023-09-07T09:41:51;6.13;;;5.63;;
769;SDS011;368;48.698;9.116;2023-09-07T09:44:20;6.53;;;5.93;;
769;SDS011;368;48.698;9.116;2023-09-07T09:46:50;6.53;;;6.03;;
769;SDS011;368;48.698;9.116;2023-09-07T09:49:19;6.97;;;6.47;;
769;SDS011;368;48.698;9.116;2023-09-07T09:51:48;6.17;;;5.67;;
769;SDS011;368;48.698;9.116;2023-09-07T09:54:16;6.83;;;6.17;;
769;SDS011;368;48.698;9.116;2023-09-07T09:56:43;6.53;;;6.03;;
769;SDS011;368;48.698;9.116;2023-09-07T09:59:12;6.80;;;6.30;;
769;SDS011;368;48.698;9.116;2023-09-07T10:01:40;7.40;;;6.90;;
769;SDS011;368;48.698;9.116;2023-09-07T10:04:10;6.20;;;5.70;;
769;SDS011;368;48.698;9.116;2023-09-07T10:06:38;6.37;;;5.77;;
769;SDS011;368;48.698;9.116;2023-09-07T10:09:15;6.30;;;5.70;;
769;SDS011;368;48.698;9.116;2023-09-07T10:11:50;5.60;;;5.00;;
769;SDS011;368;48.698;9.116;2023-09-07T10:14:20;6.63;;;6.03;;
769;SDS011;368;48.698;9.116;2023-09-07T10:16:47;6.50;;;6.00;;
769;SDS011;368;48.698;9.116;2023-09-07T10:19:16;5.80;;;5.40;;
769;SDS011;368;48.698;9.116;2023-09-07T10:21:44;6.60;;;6.00;;
769;SDS011;368;48.698;9.116;2023-09-07T10:24:11;6.33;;;5.83;;
769;SDS011;368;48.698;9.116;2023-09-07T10:26:55;6.43;;;5.93;;
769;SDS011;368;48.698;9.116;2023-09-07T10:29:24;6.30;;;5.80;;
769;SDS011;368;48.698;9.116;2023-09-07T10:31:51;6.63;;;6.00;;
769;SDS011;368;48.698;9.116;2023-09-07T10:34:18;6.13;;;5.73;;
769;SDS011;368;48.698;9.116;2023-09-07T10:36:46;5.63;;;5.23;;
769;SDS011;368;48.698;9.116;2023-09-07T10:39:12;6.20;;;5.70;;
769;SDS011;368;48.698;9.116;2023-09-07T10:41:39;6.17;;;5.67;;
769;SDS011;368;48.698;9.116;2023-09-07T10:44:07;6.53;;;5.90;;
769;SDS011;368;48.698;9.116;2023-09-07T10:46:37;6.80;;;6.27;;
769;SDS011;368;48.698;9.116;2023-09-07T10:49:05;5.70;;;5.10;;
769;SDS011;368;48.698;9.116;2023-09-07T10:51:39;7.53;;;5.97;;
769;SDS011;368;48.698;9.116;2023-09-07T10:54:15;7.30;;;5.90;;
769;SDS011;368;48.698;9.116;2023-09-07T10:56:43;5.87;;;5.30;;
769;SDS011;368;48.698;9.116;2023-09-07T10:59:11;6.20;;;5.70;;
769;SDS011;368;48.698;9.116;2023-09-07T11:01:40;5.27;;;4.87;;
769;SDS011;368;48.698;9.116;2023-09-07T11:04:07;6.63;;;6.10;;
769;SDS011;368;48.698;9.116;2023-09-07T11:06:36;5.20;;;4.70;;
769;SDS011;368;48.698;9.116;2023-09-07T11:09:03;5.30;;;4.90;;
769;SDS011;368;48.698;9.116;2023-09-07T11:11:33;5.47;;;5.13;;
769;SDS011;368;48.698;9.116;2023-09-07T11:14:01;6.63;;;5.30;;
769;SDS011;368;48.698;9.116;2023-09-07T11:16:29;6.33;;;5.73;;
769;SDS011;368;48.698;9.116;2023-09-07T11:18:59;5.90;;;5.40;;
769;SDS011;368;48.698;9.116;2023-09-07T11:21:29;5.80;;;5.30;;
769;SDS011;368;48.698;9.116;2023-09-07T11:23:57;5.73;;;5.33;;
769;SDS011;368;48.698;9.116;2023-09-07T11:26:24;5.10;;;4.70;;
769;SDS011;368;48.698;9.116;2023-09-07T11:28:51;5.90;;;5.40;;
769;SDS011;368;48.698;9.116;2023-09-07T11:31:18;6.17;;;5.67;;
769;SDS011;368;48.698;9.116;2023-09-07T11:33:46;5.17;;;4.87;;
769;SDS011;368;48.698;9.116;2023-09-07T11:36:15;5.40;;;4.87;;
769;SDS011;368;48.698;9.116;2023-09-07T11:38:42;5.60;;;5.20;;
769;SDS011;368;48.698;9.116;2023-09-07T11:41:11;5.70;;;5.20;;
769;SDS011;368;48.698;9.116;2023-09-07T11:43:38;5.10;;;4.50;;
769;SDS011;368;48.698;9.116;2023-09-07T11:46:05;5.13;;;4.60;;
769;SDS011;368;48.698;9.116;2023-09-07T11:48:31;5.37;;;4.87;;
769;SDS011;368;48.698;9.116;2023-09-07T11:50:59;5.90;;;5.40;;
769;SDS011;368;48.698;9.116;2023-09-07T11:53:27;5.47;;;5.07;;
769;SDS011;368;48.698;9.116;2023-09-07T11:55:55;6.20;;;4.90;;
769;SDS011;368;48.698;9.116;2023-09-07T11:58:23;5.03;;;4.73;;
769;SDS011;368;48.698;9.116;2023-09-07T12:00:51;5.07;;;4.67;;
769;SDS011;368;48.698;9.116;2023-09-07T12:03:18;6.83;;;5.40;;
769;SDS011;368;48.698;9.116;2023-09-07T12:05:45;6.40;;;5.87;;
769;SDS011;368;48.698;9.116;2023-09-07T12:08:12;5.07;;;4.50;;
769;SDS011;368;48.698;9.116;2023-09-07T12:10:40;6.23;;;5.00;;
769;SDS011;368;48.698;9.116;2023-09-07T12:13:07;5.00;;;4.40;;
769;SDS011;368;48.698;9.116;2023-09-07T12:15:34;5.63;;;4.93;;
769;SDS011;368;48.698;9.116;2023-09-07T12:18:01;5.23;;;4.83;;
769;SDS011;368;48.698;9.116;2023-09-07T12:20:28;5.10;;;4.70;;
769;SDS011;368;48.698;9.116;2023-09-07T12:22:55;4.33;;;4.03;;
769;SDS011;368;48.698;9.116;2023-09-07T12:25:21;5.83;;;4.50;;
769;SDS011;368;48.698;9.116;2023-09-07T12:27:49;4.90;;;4.50;;
769;SDS011;368;48.698;9.116;2023-09-07T12:30:17;5.13;;;4.80;;
769;SDS011;368;48.698;9.116;2023-09-07T12:32:45;4.40;;;4.10;;
769;SDS011;368;48.698;9.116;2023-09-07T12:35:12;4.60;;;4.20;;
769;SDS011;368;48.698;9.116;2023-09-07T12:37:40;4.60;;;4.30;;
769;SDS011;368;48.698;9.116;2023-09-07T12:40:07;5.07;;;4.60;;
769;SDS011;368;48.698;9.116;2023-09-07T12:42:37;4.90;;;4.07;;
769;SDS011;368;48.698;9.116;2023-09-07T12:45:07;4.83;;;4.43;;
769;SDS011;368;48.698;9.116;2023-09-07T12:47:35;3.87;;;3.57;;
769;SDS011;368;48.698;9.116;2023-09-07T12:50:02;5.17;;;4.13;;
769;SDS011;368;48.698;9.116;2023-09-07T12:52:30;4.97;;;4.57;;
769;SDS011;368;48.698;9.116;2023-09-07T12:54:56;4.93;;;4.50;;
769;SDS011;368;48.698;9.116;2023-09-07T12:57:23;4.47;;;4.07;;
769;SDS011;368;48.698;9.116;2023-09-07T12:59:50;4.90;;;4.47;;
769;SDS011;368;48.698;9.116;2023-09-07T13:02:18;4.73;;;4.00;;
769;SDS011;368;48.698;9.116;2023-09-07T13:04:45;5.43;;;5.03;;
769;SDS011;368;48.698;9.116;2023-09-07T13:07:12;4.97;;;4.60;;
769;SDS011;368;48.698;9.116;2023-09-07T13:09:39;4.83;;;4.43;;
769;SDS011;368;48.698;9.116;2023-09-07T13:12:06;5.13;;;4.77;;
769;SDS011;368;48.698;9.116;2023-09-07T13:14:33;5.37;;;4.87;;
769;SDS011;368;48.698;9.116;2023-09-07T13:17:00;4.40;;;4.10;;
769;SDS011;368;48.698;9.116;2023-09-07T13:19:28;4.90;;;4.50;;
769;SDS011;368;48.698;9.116;2023-09-07T13:21:55;4.90;;;4.50;;
769;SDS011;368;48.698;9.116;2023-09-07T13:24:21;4.50;;;4.10;;
769;SDS011;368;48.698;9.116;2023-09-07T13:26:50;4.13;;;3.83;;
769;SDS011;368;48.698;9.116;2023-09-07T13:29:17;8.73;;;4.40;;
769;SDS011;368;48.698;9.116;2023-09-07T13:31:43;5.07;;;4.20;;
769;SDS011;368;48.698;9.116;2023-09-07T13:34:10;4.93;;;4.63;;
769;SDS011;368;48.698;9.116;2023-09-07T13:36:38;4.77;;;4.40;;
769;SDS011;368;48.698;9.116;2023-09-07T13:39:05;4.80;;;4.33;;
769;SDS011;368;48.698;9.116;2023-09-07T13:41:32;4.33;;;4.03;;
769;SDS011;368;48.698;9.116;2023-09-07T13:43:59;5.83;;;4.20;;
769;SDS011;368;48.698;9.116;2023-09-07T13:46:25;4.60;;;4.30;;
769;SDS011;368;48.698;9.116;2023-09-07T13:48:52;4.60;;;4.27;;
769;SDS011;368;48.698;9.116;2023-09-07T13:51:19;5.60;;;5.10;;
769;SDS011;368;48.698;9.116;2023-09-07T13:53:47;4.33;;;4.03;;
769;SDS011;368;48.698;9.116;2023-09-07T13:56:15;4.37;;;4.07;;
769;SDS011;368;48.698;9.116;2023-09-07T13:58:41;4.10;;;3.70;;
769;SDS011;368;48.698;9.116;2023-09-07T14:01:08;4.57;;;4.20;;
769;SDS011;368;48.698;9.116;2023-09-07T14:03:35;4.00;;;3.70;;
769;SDS011;368;48.698;9.116;2023-09-07T14:06:03;6.73;;;4.03;;
769;SDS011;368;48.698;9.116;2023-09-07T14:08:29;4.43;;;4.03;;
769;SDS011;368;48.698;9.116;2023-09-07T14:10:59;3.70;;;3.40;;
769;SDS011;368;48.698;9.116;2023-09-07T14:13:26;4.17;;;3.77;;
769;SDS011;368;48.698;9.116;2023-09-07T14:15:53;4.30;;;3.90;;
769;SDS011;368;48.698;9.116;2023-09-07T14:18:20;4.20;;;3.90;;
769;SDS011;368;48.698;9.116;2023-09-07T14:20:46;4.57;;;4.17;;
769;SDS011;368;48.698;9.116;2023-09-07T14:23:13;3.63;;;3.33;;
769;SDS011;368;48.698;9.116;2023-09-07T14:25:40;4.47;;;4.07;;
769;SDS011;368;48.698;9.116;2023-09-07T14:28:11;4.60;;;4.30;;
769;SDS011;368;48.698;9.116;2023-09-07T14:30:38;5.00;;;4.37;;
769;SDS011;368;48.698;9.116;2023-09-07T14:33:04;4.40;;;4.10;;
769;SDS011;368;48.698;9.116;2023-09-07T14:35:31;4.40;;;4.10;;
769;SDS011;368;48.698;9.116;2023-09-07T14:37:58;4.10;;;3.80;;
769;SDS011;368;48.698;9.116;2023-09-07T14:40:25;4.07;;;3.87;;
769;SDS011;368;48.698;9.116;2023-09-07T14:42:52;4.27;;;3.90;;
769;SDS011;368;48.698;9.116;2023-09-07T14:45:23;4.70;;;4.30;;
769;SDS011;368;48.698;9.116;2023-09-07T14:47:50;4.57;;;4.17;;
769;SDS011;368;48.698;9.116;2023-09-07T14:50:17;3.73;;;3.53;;
769;SDS011;368;48.698;9.116;2023-09-07T14:52:44;4.20;;;4.00;;
769;SDS011;368;48.698;9.116;2023-09-07T14:55:12;4.53;;;4.13;;
769;SDS011;368;48.698;9.116;2023-09-07T14:57:39;4.53;;;4.17;;
769;SDS011;368;48.698;9.116;2023-09-07T15:00:06;4.20;;;3.90;;
769;SDS011;368;48.698;9.116;2023-09-07T15:02:35;4.30;;;4.00;;
769;SDS011;368;48.698;9.116;2023-09-07T15:05:02;4.10;;;3.73;;
769;SDS011;368;48.698;9.116;2023-09-07T15:07:29;4.40;;;3.47;;
769;SDS011;368;48.698;9.116;2023-09-07T15:09:57;3.30;;;3.10;;
769;SDS011;368;48.698;9.116;2023-09-07T15:12:23;5.73;;;3.47;;
769;SDS011;368;48.698;9.116;2023-09-07T15:14:51;4.07;;;3.73;;
769;SDS011;368;48.698;9.116;2023-09-07T15:17:18;5.40;;;3.87;;
769;SDS011;368;48.698;9.116;2023-09-07T15:19:46;5.23;;;4.73;;
769;SDS011;368;48.698;9.116;2023-09-07T15:22:13;4.77;;;4.47;;
769;SDS011;368;48.698;9.116;2023-09-07T15:24:39;5.33;;;4.80;;
769;SDS011;368;48.698;9.116;2023-09-07T15:27:07;4.50;;;4.10;;
769;SDS011;368;48.698;9.116;2023-09-07T15:29:35;3.77;;;3.57;;
769;SDS011;368;48.698;9.116;2023-09-07T15:32:02;5.47;;;5.07;;
769;SDS011;368;48.698;9.116;2023-09-07T15:34:29;5.33;;;4.93;;
769;SDS011;368;48.698;9.116;2023-09-07T15:36:57;4.90;;;4.50;;
769;SDS011;368;48.698;9.116;2023-09-07T15:39:23;5.27;;;4.87;;
769;SDS011;368;48.698;9.116;2023-09-07T15:41:50;5.07;;;4.67;;
769;SDS011;368;48.698;9.116;2023-09-07T15:44:19;5.20;;;4.70;;
769;SDS011;368;48.698;9.116;2023-09-07T15:46:47;5.53;;;5.00;;